createdAt,value
2019-02-25T00:01:43.328Z,33.07
2019-02-25T00:04:24.407Z,35.37
2019-02-25T00:07:05.053Z,32.17
2019-02-25T00:09:46.134Z,29.27
2019-02-25T00:12:26.759Z,33.57
2019-02-25T00:15:07.638Z,32.80
2019-02-25T00:17:48.177Z,34.70
2019-02-25T00:20:29.061Z,32.97
2019-02-25T00:23:09.907Z,34.80
2019-02-25T00:25:50.827Z,31.30
2019-02-25T00:28:31.517Z,33.97
2019-02-25T00:31:11.951Z,32.13
2019-02-25T00:33:52.792Z,32.03
2019-02-25T00:36:33.401Z,31.57
2019-02-25T00:39:13.965Z,32.37
2019-02-25T00:41:54.784Z,33.20
2019-02-25T00:44:35.364Z,28.60
2019-02-25T00:47:15.747Z,31.77
2019-02-25T00:49:56.747Z,26.33
2019-02-25T00:52:37.450Z,31.77
2019-02-25T00:55:18.110Z,30.30
2019-02-25T01:00:41.137Z,31.63
2019-02-25T01:03:21.959Z,29.17
2019-02-25T01:06:02.757Z,29.43
2019-02-25T01:08:43.728Z,31.63
2019-02-25T01:11:25.105Z,28.53
2019-02-25T01:14:05.509Z,29.80
2019-02-25T01:16:46.328Z,28.10
2019-02-25T01:19:26.900Z,28.40
2019-02-25T01:22:07.584Z,24.30
2019-02-25T01:24:48.183Z,26.20
2019-02-25T01:27:28.845Z,27.73
2019-02-25T01:30:09.709Z,31.10
2019-02-25T01:32:50.352Z,30.90
2019-02-25T01:35:31.201Z,26.40
2019-02-25T01:38:12.386Z,29.53
2019-02-25T01:40:53.665Z,27.00
2019-02-25T01:43:34.287Z,25.50
2019-02-25T01:46:14.946Z,26.53
2019-02-25T01:48:55.924Z,28.77
2019-02-25T01:51:36.897Z,27.23
2019-02-25T01:54:17.918Z,25.73
2019-02-25T01:56:56.999Z,31.57
2019-02-25T01:59:45.171Z,27.07
2019-02-25T02:02:33.101Z,26.77
2019-02-25T02:05:21.041Z,26.03
2019-02-25T02:08:09.509Z,28.63
2019-02-25T02:10:57.720Z,28.60
2019-02-25T02:13:45.626Z,27.30
2019-02-25T02:16:33.841Z,27.17
2019-02-25T02:19:22.087Z,24.70
2019-02-25T02:22:03.084Z,28.70
2019-02-25T02:24:44.196Z,24.60
2019-02-25T02:27:25.496Z,24.30
2019-02-25T02:30:06.294Z,25.53
2019-02-25T02:32:47.243Z,24.47
2019-02-25T02:35:28.226Z,25.93
2019-02-25T02:38:09.015Z,25.03
2019-02-25T02:40:49.703Z,23.67
2019-02-25T02:43:30.533Z,26.80
2019-02-25T02:46:11.389Z,25.23
2019-02-25T02:48:52.818Z,26.63
2019-02-25T02:51:33.315Z,29.00
2019-02-25T02:54:15.721Z,25.20
2019-02-25T02:56:56.219Z,26.23
2019-02-25T02:59:37.310Z,24.77
2019-02-25T03:02:17.657Z,25.77
2019-02-25T03:04:58.125Z,24.73
2019-02-25T03:07:38.972Z,25.50
2019-02-25T03:10:19.485Z,22.90
2019-02-25T03:13:00.195Z,25.10
2019-02-25T03:15:40.664Z,25.13
2019-02-25T03:18:21.048Z,26.40
2019-02-25T03:21:02.423Z,23.63
2019-02-25T03:23:42.973Z,25.30
2019-02-25T03:26:23.675Z,28.60
2019-02-25T03:29:04.560Z,23.27
2019-02-25T03:31:45.153Z,24.60
2019-02-25T03:34:25.985Z,22.83
2019-02-25T03:37:06.403Z,23.80
2019-02-25T03:39:47.275Z,25.90
2019-02-25T03:42:27.764Z,24.00
2019-02-25T03:45:08.516Z,24.40
2019-02-25T03:47:49.259Z,24.43
2019-02-25T03:50:30.057Z,22.20
2019-02-25T03:53:11.343Z,25.67
2019-02-25T03:55:52.195Z,25.83
2019-02-25T03:58:33.127Z,26.00
2019-02-25T04:01:13.711Z,27.00
2019-02-25T04:03:54.458Z,22.40
2019-02-25T04:06:35.270Z,23.63
2019-02-25T04:09:15.928Z,21.33
2019-02-25T04:11:56.703Z,24.70
2019-02-25T04:14:37.759Z,22.43
2019-02-25T04:17:18.239Z,23.17
2019-02-25T04:19:59.341Z,25.10
2019-02-25T04:25:09.965Z,22.83
2019-02-25T04:27:57.867Z,21.90
2019-02-25T04:30:45.883Z,22.90
2019-02-25T04:33:34.100Z,22.20
2019-02-25T04:36:22.284Z,21.70
2019-02-25T04:39:10.687Z,25.60
2019-02-25T04:41:58.941Z,22.70
2019-02-25T04:44:47.132Z,25.20
2019-02-25T04:47:35.047Z,21.93
2019-02-25T04:50:22.937Z,21.83
2019-02-25T04:53:10.908Z,20.10
2019-02-25T04:55:58.812Z,24.83
2019-02-25T04:58:46.747Z,20.47
2019-02-25T05:01:34.647Z,21.80
2019-02-25T05:04:22.997Z,20.67
2019-02-25T05:07:10.950Z,21.37
2019-02-25T05:09:59.135Z,21.57
2019-02-25T05:13:06.360Z,23.43
2019-02-25T05:15:54.437Z,21.77
2019-02-25T05:18:42.399Z,21.40
2019-02-25T05:21:30.621Z,22.57
2019-02-25T05:24:11.451Z,21.90
2019-02-25T05:26:52.415Z,20.07
2019-02-25T05:29:33.419Z,20.10
2019-02-25T05:32:14.398Z,19.17
2019-02-25T05:34:53.536Z,20.57
2019-02-25T05:37:41.512Z,18.37
2019-02-25T05:40:29.422Z,17.80
2019-02-25T05:43:17.664Z,22.80
2019-02-25T05:46:06.059Z,21.30
2019-02-25T05:48:54.036Z,19.70
2019-02-25T05:51:41.975Z,17.30
2019-02-25T05:54:29.927Z,17.70
2019-02-25T05:57:17.821Z,20.30
2019-02-25T06:00:06.208Z,18.87
2019-02-25T06:02:54.373Z,20.50
2019-02-25T06:05:42.305Z,20.90
2019-02-25T06:08:30.195Z,20.20
2019-02-25T06:11:18.152Z,18.30
2019-02-25T06:14:06.332Z,20.10
2019-02-25T06:16:54.314Z,17.07
2019-02-25T06:19:42.220Z,19.20
2019-02-25T06:22:22.631Z,18.73
2019-02-25T06:25:03.394Z,20.30
2019-02-25T06:27:45.068Z,20.07
2019-02-25T06:30:26.212Z,21.40
2019-02-25T06:33:07.136Z,18.60
2019-02-25T06:38:30.501Z,19.90
2019-02-25T06:41:11.080Z,21.13
2019-02-25T06:43:52.340Z,22.13
2019-02-25T06:46:33.567Z,20.97
2019-02-25T06:49:14.602Z,19.03
2019-02-25T06:51:55.668Z,17.70
2019-02-25T06:54:37.275Z,22.17
2019-02-25T06:57:18.091Z,17.63
2019-02-25T06:59:58.784Z,18.30
2019-02-25T07:05:41.573Z,18.07
2019-02-25T07:08:41.084Z,18.47
2019-02-25T07:11:30.499Z,18.07
2019-02-25T07:14:30.716Z,18.33
2019-02-25T07:17:26.153Z,25.63
2019-02-25T07:20:19.800Z,18.50
2019-02-25T07:23:19.269Z,21.27
2019-02-25T07:26:19.578Z,17.80
2019-02-25T07:29:06.741Z,17.90
2019-02-25T07:32:01.355Z,17.40
2019-02-25T07:35:01.078Z,17.60
2019-02-25T07:38:01.340Z,17.57
2019-02-25T07:40:53.842Z,16.80
2019-02-25T07:43:40.009Z,17.13
2019-02-25T07:46:40.181Z,52.37
2019-02-25T07:49:30.048Z,19.10
2019-02-25T07:52:17.496Z,15.60
2019-02-25T07:55:04.403Z,16.47
2019-02-25T07:57:45.553Z,15.90
2019-02-25T08:00:39.679Z,16.90
2019-02-25T08:03:25.149Z,16.83
2019-02-25T08:06:32.141Z,15.47
2019-02-25T08:09:27.329Z,15.27
2019-02-25T08:12:21.212Z,19.10
2019-02-25T08:15:28.222Z,15.57
2019-02-25T08:18:35.240Z,21.17
2019-02-25T08:21:42.476Z,17.50
2019-02-25T08:27:24.628Z,22.53
2019-02-25T08:33:21.924Z,17.57
2019-02-25T08:36:22.019Z,17.63
2019-02-25T08:39:03.051Z,19.43
2019-02-25T08:41:54.277Z,15.97
2019-02-25T08:44:37.742Z,15.80
2019-02-25T08:47:44.754Z,16.43
2019-02-25T08:50:32.665Z,17.70
2019-02-25T08:53:20.590Z,16.30
2019-02-25T08:56:09.363Z,16.83
2019-02-25T08:58:58.220Z,15.10
2019-02-25T09:01:46.513Z,17.07
2019-02-25T09:04:49.148Z,15.33
2019-02-25T09:07:25.486Z,18.10
2019-02-25T09:10:13.664Z,18.70
2019-02-25T09:13:03.010Z,15.27
2019-02-25T09:15:50.920Z,13.40
2019-02-25T09:18:38.876Z,14.90
2019-02-25T09:21:31.822Z,13.77
2019-02-25T09:24:09.556Z,11.63
2019-02-25T09:26:50.072Z,11.07
2019-02-25T09:29:30.895Z,13.43
2019-02-25T09:32:11.628Z,17.57
2019-02-25T09:34:52.437Z,12.50
2019-02-25T09:37:32.796Z,11.40
2019-02-25T09:40:13.708Z,16.73
2019-02-25T09:42:54.581Z,12.40
2019-02-25T09:45:35.446Z,11.77
2019-02-25T09:48:16.476Z,14.23
2019-02-25T09:50:45.183Z,11.90
2019-02-25T09:53:14.006Z,9.90
2019-02-25T09:56:01.976Z,10.30
2019-02-25T09:58:30.714Z,13.80
2019-02-25T10:00:59.417Z,11.30
2019-02-25T10:03:47.351Z,10.60
2019-02-25T10:06:35.244Z,8.83
2019-02-25T10:09:29.661Z,12.00
2019-02-25T10:11:53.832Z,13.37
2019-02-25T10:14:41.784Z,9.63
2019-02-25T10:17:29.697Z,9.23
2019-02-25T10:20:17.639Z,8.80
2019-02-25T10:23:05.660Z,10.60
2019-02-25T10:25:46.088Z,8.43
2019-02-25T10:28:26.911Z,7.97
2019-02-25T10:31:07.980Z,7.97
2019-02-25T10:33:48.699Z,9.33
2019-02-25T10:36:29.653Z,8.93
2019-02-25T10:38:58.828Z,9.10
2019-02-25T10:41:46.740Z,9.23
2019-02-25T10:44:36.154Z,7.80
2019-02-25T10:47:24.319Z,7.73
2019-02-25T10:49:53.135Z,12.80
2019-02-25T10:52:42.850Z,9.10
2019-02-25T10:55:32.107Z,9.00
2019-02-25T10:58:20.032Z,8.73
2019-02-25T11:01:13.085Z,7.03
2019-02-25T11:03:57.581Z,9.00
2019-02-25T11:06:45.476Z,7.13
2019-02-25T11:09:52.464Z,7.07
2019-02-25T11:12:40.581Z,7.27
2019-02-25T11:15:31.672Z,8.93
2019-02-25T11:18:20.363Z,6.90
2019-02-25T11:20:49.927Z,9.50
2019-02-25T11:23:19.428Z,6.90
2019-02-25T11:25:48.564Z,7.60
2019-02-25T11:28:25.391Z,7.00
2019-02-25T11:31:06.890Z,7.10
2019-02-25T11:33:56.490Z,6.50
2019-02-25T11:38:54.071Z,6.93
2019-02-25T11:41:22.723Z,6.07
2019-02-25T11:44:10.697Z,5.83
2019-02-25T11:46:58.657Z,6.13
2019-02-25T11:49:46.815Z,4.77
2019-02-25T11:52:35.188Z,4.53
2019-02-25T11:55:03.794Z,4.13
2019-02-25T11:57:51.977Z,3.90
2019-02-25T12:00:40.160Z,3.60
2019-02-25T12:03:28.123Z,4.00
2019-02-25T12:06:16.035Z,3.30
2019-02-25T12:08:44.954Z,3.27
2019-02-25T12:11:13.546Z,3.10
2019-02-25T12:13:42.120Z,3.30
2019-02-25T12:16:30.036Z,2.73
2019-02-25T12:19:18.313Z,2.60
2019-02-25T12:22:06.238Z,2.90
2019-02-25T12:24:34.831Z,2.33
2019-02-25T12:27:03.419Z,2.17
2019-02-25T12:29:51.388Z,2.55
2019-02-25T12:32:39.292Z,2.37
2019-02-25T12:35:27.206Z,4.12
2019-02-25T12:38:15.132Z,2.37
2019-02-25T12:41:03.076Z,2.42
2019-02-25T12:43:51.248Z,2.25
2019-02-25T12:46:39.403Z,2.02
2019-02-25T12:49:08.531Z,2.27
2019-02-25T12:51:56.456Z,2.10
2019-02-25T12:54:44.590Z,2.10
2019-02-25T12:57:32.549Z,2.40
2019-02-25T13:00:01.148Z,1.90
2019-02-25T13:02:49.307Z,1.98
2019-02-25T13:05:17.910Z,1.90
2019-02-25T13:08:05.869Z,2.12
2019-02-25T13:10:53.803Z,2.00
2019-02-25T13:13:22.679Z,1.87
2019-02-25T13:16:10.592Z,2.10
2019-02-25T13:18:39.212Z,1.95
2019-02-25T13:21:27.115Z,1.90
2019-02-25T13:23:56.976Z,2.02
2019-02-25T13:26:37.481Z,1.92
2019-02-25T13:29:26.404Z,1.95
2019-02-25T13:32:14.855Z,2.22
2019-02-25T13:35:04.259Z,2.47
2019-02-25T13:37:32.896Z,2.17
2019-02-25T13:40:01.553Z,2.45
2019-02-25T13:42:30.242Z,2.10
2019-02-25T13:44:59.027Z,2.30
2019-02-25T13:47:28.224Z,2.15
2019-02-25T13:49:56.842Z,2.00
2019-02-25T13:52:48.578Z,2.25
2019-02-25T13:55:34.650Z,1.95
2019-02-25T13:58:22.824Z,2.08
2019-02-25T14:01:10.899Z,2.00
2019-02-25T14:03:59.129Z,2.08
2019-02-25T14:06:28.510Z,1.77
2019-02-25T14:11:27.249Z,2.30
2019-02-25T14:14:15.263Z,2.17
2019-02-25T14:16:44.159Z,3.00
2019-02-25T14:19:32.099Z,2.97
2019-02-25T14:22:00.747Z,3.43
2019-02-25T14:24:49.250Z,3.97
2019-02-25T14:27:30.592Z,4.00
2019-02-25T14:30:11.243Z,3.90
2019-02-25T14:38:52.385Z,4.40
2019-02-25T14:43:51.581Z,4.90
2019-02-25T14:48:50.057Z,4.93
2019-02-25T14:51:38.308Z,4.67
2019-02-25T14:54:26.754Z,4.53
2019-02-25T14:59:50.733Z,4.73
2019-02-25T15:04:50.361Z,4.00
2019-02-25T15:07:19.596Z,3.60
2019-02-25T15:09:48.209Z,3.50
2019-02-25T15:12:16.875Z,3.57
2019-02-25T15:14:45.507Z,3.87
2019-02-25T15:17:14.895Z,3.73
2019-02-25T15:20:02.942Z,3.87
2019-02-25T15:22:32.059Z,4.03
2019-02-25T15:27:43.958Z,4.40
2019-02-25T15:30:27.445Z,4.20
2019-02-25T15:33:08.067Z,4.67
2019-02-25T15:38:24.507Z,4.80
2019-02-25T15:44:02.342Z,5.40
2019-02-25T15:46:30.631Z,4.77
2019-02-25T15:49:19.673Z,4.90
2019-02-25T15:54:18.683Z,4.83
2019-02-25T15:57:06.626Z,5.43
2019-02-25T15:59:54.568Z,4.87
2019-02-25T16:02:42.825Z,5.63
2019-02-25T16:05:11.716Z,5.63
2019-02-25T16:08:00.708Z,5.30
2019-02-25T16:12:59.924Z,5.07
2019-02-25T16:18:04.607Z,4.80
2019-02-25T16:20:52.507Z,5.63
2019-02-25T16:23:21.171Z,4.90
2019-02-25T16:25:50.963Z,5.57
2019-02-25T16:28:33.996Z,5.60
2019-02-25T16:31:14.825Z,4.70
2019-02-25T16:33:55.902Z,5.40
2019-02-25T16:36:26.238Z,5.20
2019-02-25T16:39:15.607Z,5.00
2019-02-25T16:42:03.613Z,5.07
2019-02-25T16:44:51.536Z,5.37
2019-02-25T16:47:31.844Z,5.13
2019-02-25T16:50:12.552Z,5.10
2019-02-25T16:55:11.726Z,5.33
2019-02-25T16:58:01.792Z,4.77
2019-02-25T17:00:50.015Z,5.07
2019-02-25T17:03:39.772Z,5.30
2019-02-25T17:08:37.795Z,4.97
2019-02-25T17:11:06.477Z,6.00
2019-02-25T17:13:36.986Z,5.80
2019-02-25T17:18:55.251Z,5.50
2019-02-25T17:21:43.676Z,4.90
2019-02-25T17:24:34.712Z,5.40
2019-02-25T17:29:44.136Z,5.73
2019-02-25T17:32:25.464Z,6.40
2019-02-25T17:35:07.417Z,6.37
2019-02-25T17:37:38.087Z,5.63
2019-02-25T17:42:56.272Z,6.03
2019-02-25T17:47:58.386Z,6.27
2019-02-25T17:53:19.089Z,6.07
2019-02-25T17:55:49.022Z,6.40
2019-02-25T18:06:23.308Z,6.80
2019-02-25T18:09:10.013Z,6.30
2019-02-25T18:11:59.971Z,8.63
2019-02-25T18:14:47.859Z,6.47
2019-02-25T18:17:17.545Z,7.10
2019-02-25T18:22:35.735Z,7.37
2019-02-25T18:25:23.742Z,8.93
2019-02-25T18:28:13.036Z,6.57
2019-02-25T18:30:54.407Z,6.10
2019-02-25T18:36:16.551Z,12.73
2019-02-25T18:38:46.379Z,8.80
2019-02-25T18:44:04.902Z,6.50
2019-02-25T18:49:22.292Z,6.37
2019-02-25T18:52:10.219Z,30.80
2019-02-25T18:55:01.896Z,32.10
2019-02-25T19:08:47.308Z,37.27
2019-02-25T19:14:04.572Z,39.00
2019-02-25T19:16:52.539Z,46.87
2019-02-25T19:22:35.590Z,44.27
2019-02-25T19:28:21.090Z,49.63
2019-02-25T19:31:03.583Z,52.57
2019-02-25T19:33:44.663Z,44.03
2019-02-25T19:36:27.740Z,51.80
2019-02-25T19:39:10.007Z,53.47
2019-02-25T19:41:51.016Z,52.53
2019-02-25T19:44:39.199Z,50.40
2019-02-25T19:47:27.231Z,46.90
2019-02-25T19:50:15.350Z,56.77
2019-02-25T19:53:05.252Z,58.80
2019-02-25T19:58:32.949Z,57.53
2019-02-25T20:03:47.731Z,59.27
2019-02-25T20:06:36.456Z,60.50
2019-02-25T20:09:24.532Z,59.60
2019-02-25T20:12:12.828Z,68.63
2019-02-25T20:15:00.792Z,59.03
2019-02-25T20:17:50.640Z,56.73
2019-02-25T20:23:17.877Z,51.67
2019-02-25T20:26:06.074Z,55.87
2019-02-25T20:28:54.033Z,52.30
2019-02-25T20:31:35.187Z,59.23
2019-02-25T20:34:18.514Z,52.97
2019-02-25T20:36:59.907Z,53.83
2019-02-25T20:39:42.984Z,55.57
2019-02-25T20:42:26.198Z,61.53
2019-02-25T20:45:08.689Z,64.00
2019-02-25T20:47:50.113Z,58.40
2019-02-25T20:50:32.463Z,54.90
2019-02-25T20:53:12.826Z,57.60
2019-02-25T20:55:54.637Z,54.47
2019-02-25T21:01:20.418Z,52.77
2019-02-25T21:04:01.325Z,57.27
2019-02-25T21:06:43.940Z,55.80
2019-02-25T21:09:24.438Z,52.47
2019-02-25T21:12:04.969Z,56.87
2019-02-25T21:14:45.680Z,69.90
2019-02-25T21:17:26.312Z,61.93
2019-02-25T21:20:07.287Z,61.40
2019-02-25T21:22:48.172Z,70.63
2019-02-25T21:28:11.476Z,59.83
2019-02-25T21:30:52.828Z,70.40
2019-02-25T21:33:33.737Z,52.70
2019-02-25T21:36:02.511Z,57.20
2019-02-25T21:41:45.845Z,52.87
2019-02-25T21:47:09.316Z,53.83
2019-02-25T21:49:59.103Z,56.40
2019-02-25T21:52:47.956Z,55.83
2019-02-25T21:55:36.027Z,49.50
2019-02-25T22:01:17.338Z,61.77
2019-02-25T22:04:09.183Z,53.90
2019-02-25T22:06:55.783Z,51.80
2019-02-25T22:12:19.948Z,52.90
2019-02-25T22:15:08.625Z,52.20
2019-02-25T22:18:16.014Z,51.93
2019-02-25T22:21:07.138Z,55.60
2019-02-25T22:26:33.354Z,59.33
2019-02-25T22:31:50.295Z,57.07
2019-02-25T22:34:30.942Z,54.23
2019-02-25T22:37:14.507Z,54.03
2019-02-25T22:39:54.947Z,54.03
2019-02-25T22:42:36.227Z,59.90
2019-02-25T22:45:18.782Z,56.47
2019-02-25T22:47:59.940Z,57.43
2019-02-25T22:50:40.692Z,54.20
2019-02-25T22:53:21.158Z,56.20
2019-02-25T22:56:02.350Z,57.90
2019-02-25T22:58:43.221Z,51.77
2019-02-25T23:01:24.060Z,51.17
2019-02-25T23:04:05.307Z,53.17
2019-02-25T23:06:46.944Z,55.87
2019-02-25T23:09:28.743Z,53.03
2019-02-25T23:12:09.644Z,58.33
2019-02-25T23:14:50.400Z,49.50
2019-02-25T23:17:33.080Z,63.73
2019-02-25T23:20:13.590Z,50.30
2019-02-25T23:22:55.162Z,56.10
2019-02-25T23:30:55.426Z,48.57
2019-02-25T23:33:40.202Z,55.70
2019-02-25T23:36:21.670Z,46.77
2019-02-25T23:38:50.672Z,47.27
2019-02-25T23:44:08.974Z,48.70
2019-02-25T23:49:27.684Z,49.97
2019-02-25T23:52:16.247Z,44.57
2019-02-25T23:55:04.874Z,52.80
2019-02-25T23:57:52.784Z,46.97
